Flight Track Log - Related Links

Times and Time Zones

All times are in EDT time to prevent confusion due to time zone crossing. See the SWA378 flight status page for this flight to view local times or setup timezone preferences in your user account.


Time Position Orientation Groundspeed Altitude Reporting Facility
EDT Latitude Longitude Course Direction KTS MPH feet Rate Location/Type
Tue 06:48:44 PM 33.6328 -84.4778 235° Southwest 435 501 2,700  Level Atlanta Center
Tue 06:49:45 PM 33.6000 -84.5333 235° Southwest 215 247 4,900 2,430 Climbing Atlanta TRACON
Tue 06:50:45 PM 33.5500 -84.5833 220° Southwest 279 321 7,600 3,000 Climbing Atlanta TRACON
Tue 06:51:45 PM 33.4833 -84.5667 168° South 300 345 10,900 2,615 Climbing Atlanta TRACON
Tue 06:53:44 PM 33.4556 -84.3625 99° East 371 427 15,400 2,547 Climbing Atlanta Center
Tue 06:54:44 PM 33.4728 -84.2381 81° East 371 427 18,500 3,000 Climbing Atlanta Center
Tue 06:55:44 PM 33.5186 -84.1211 65° Northeast 372 428 21,400 2,250 Climbing Atlanta Center
Tue 06:56:44 PM 33.5708 -84.0039 62° Northeast 389 448 23,000 800 Climbing Atlanta Center
Tue 06:57:44 PM 33.6125 -83.8742 69° East 405 466 23,000 300 Level Atlanta Center
Tue 06:58:44 PM 33.6394 -83.7444 76° East 405 466 23,600 1,350 Climbing Atlanta Center
Tue 06:59:44 PM 33.6744 -83.6094 73° East 405 466 25,700 2,100 Climbing Atlanta Center
Tue 07:00:44 PM 33.7261 -83.4769 65° Northeast 426 490 27,800 1,150 Climbing Atlanta Center
Tue 07:01:44 PM 33.7858 -83.3314 64° Northeast 426 490 28,000 400 Climbing Atlanta Center
Tue 07:02:44 PM 33.8414 -83.1933 64° Northeast 438 504 28,600 500 Climbing Atlanta Center
Tue 07:03:44 PM 33.8967 -83.0578 64° Northeast 446 513 29,000 550 Climbing Atlanta Center
Tue 07:04:44 PM 33.9539 -82.9144 64° Northeast 457 526 29,700 1,250 Climbing Atlanta Center
Tue 07:05:44 PM 34.0131 -82.7758 63° Northeast 457 526 31,500 2,000 Climbing Atlanta Center
Tue 07:06:44 PM 34.0847 -82.6442 57° Northeast 469 540 33,700 3,750 Climbing Atlanta Center
Tue 07:07:44 PM 34.1522 -82.5328 54° Northeast 463 533 39,000 1,700 Climbing Atlanta Center
Tue 07:08:44 PM 34.2217 -82.4083 56° Northeast 452 520 37,100 -150 Descending Atlanta Center
Tue 07:09:44 PM 34.2828 -82.2917 58° Northeast 433 498 38,700 950 Climbing Atlanta Center
Tue 07:10:44 PM 34.3436 -82.1669 59° Northeast 426 490 39,000 150 Climbing Atlanta Center
Tue 07:11:44 PM 34.4019 -82.0372 61° Northeast 426 490 39,000  Level Atlanta Center
Tue 07:12:44 PM 34.4644 -81.9100 59° Northeast 426 490 39,000  Level Atlanta Center
Tue 07:13:44 PM 34.5247 -81.7797 61° Northeast 426 490 39,000  Level Atlanta Center
Tue 07:14:44 PM 34.5869 -81.6444 61° Northeast 439 505 39,000  Level Atlanta Center
Tue 07:15:44 PM 34.6553 -81.5086 59° Northeast 438 504 39,000  Level Atlanta Center
Tue 07:16:44 PM 34.7169 -81.3753 61° Northeast 438 504 39,000  Level Atlanta Center
Tue 07:17:44 PM 34.7686 -81.2522 63° Northeast 449 517 39,000  Level Atlanta Center
Tue 07:18:44 PM 34.8303 -81.1186 61° Northeast 449 517 39,000  Level Atlanta Center
Tue 07:19:44 PM 34.8917 -80.9900 60° Northeast 449 517 39,000  Level Atlanta Center
Tue 07:20:44 PM 34.9508 -80.8558 62° Northeast 448 516 39,000 -338 Level Atlanta Center
Tue 07:22:59 PM 35.0936 -80.5444 61° Northeast 453 521 37,900 -615 Descending Washington Center
Tue 07:23:59 PM 35.1558 -80.4036 62° Northeast 460 529 37,000 -446 Descending Washington Center
Tue 07:25:00 PM 35.2153 -80.2725 61° Northeast 454 522 37,000  Level Washington Center
Tue 07:25:58 PM 35.2747 -80.1358 62° Northeast 449 517 37,000  Level Washington Center
Tue 07:26:59 PM 35.3358 -80.0069 60° Northeast 442 509 37,000  Level Washington Center
Tue 07:27:59 PM 35.3969 -79.8753 60° Northeast 436 502 37,000  Level Washington Center
Tue 07:29:00 PM 35.4539 -79.7431 62° Northeast 436 502 37,000 -353 Level Washington Center
Tue 07:29:58 PM 35.5128 -79.6111 61° Northeast 436 502 36,300 -857 Descending Washington Center
Tue 07:30:59 PM 35.5733 -79.4761 61° Northeast 436 502 35,300 -992 Descending Washington Center
Tue 07:31:59 PM 35.6136 -79.3300 71° East 443 510 34,300 -992 Descending Washington Center
Tue 07:33:00 PM 35.6472 -79.1833 74° East 448 516 33,300 -992 Descending Washington Center
Tue 07:34:00 PM 35.6808 -79.0389 74° East 437 503 32,300 -1,017 Descending Washington Center
Tue 07:34:58 PM 35.7139 -78.8972 74° East 430 495 31,300 -1,059 Descending Washington Center
Tue 07:35:59 PM 35.7492 -78.7528 73° East 430 495 30,200 -1,041 Descending Washington Center
Tue 07:36:59 PM 35.7800 -78.6106 75° East 430 495 29,200 -992 Descending Washington Center
Tue 07:38:00 PM 35.8106 -78.4733 75° East 425 489 28,200 -992 Descending Washington Center
Tue 07:39:00 PM 35.8408 -78.3336 75° East 425 489 27,200 -610 Descending Washington Center
Tue 07:39:58 PM 35.8686 -78.2117 74° East 419 482 27,000 -500 Descending Washington Center
Tue 07:41:00 PM 35.8989 -78.0689 75° East 419 482 26,200 -934 Descending Washington Center
Tue 07:42:00 PM 35.9308 -77.9264 74° East 419 482 25,100 -1,041 Descending Washington Center
Tue 07:43:01 PM 35.9606 -77.7886 75° East 414 476 24,100 -1,017 Descending Washington Center
Tue 07:43:58 PM 36.0006 -77.6561 70° East 414 476 23,100 -1,169 Descending Washington Center
Tue 07:44:59 PM 36.0567 -77.5394 59° Northeast 402 463 21,800 -1,041 Descending Washington Center
Tue 07:45:59 PM 36.1128 -77.4278 58° Northeast 386 444 21,000 -397 Descending Washington Center
Tue 07:47:00 PM 36.1644 -77.3133 61° Northeast 381 438 21,000  Level Washington Center
Tue 07:47:59 PM 36.2183 -77.1986 60° Northeast 381 438 21,000 -857 Level Washington Center
Tue 07:48:59 PM 36.2742 -77.0836 59° Northeast 381 438 19,300 -1,980 Descending Washington Center
Tue 07:49:39 PM 36.3169 -76.9944 59° Northeast 380 437 17,700 -1,967 Descending Washington Center
Tue 07:50:00 PM 36.3256 -76.9714 65° Northeast 375 432 17,300 -1,823 Descending Washington Center
Tue 07:50:58 PM 36.3789 -76.8639 58° Northeast 370 426 15,300 -2,017 Descending Washington Center
Tue 07:51:59 PM 36.4300 -76.7589 59° Northeast 365 420 13,300 -2,033 Descending Washington Center
Tue 07:52:59 PM 36.4853 -76.6564 56° Northeast 353 406 11,200 -1,219 Descending Washington Center
Tue 07:54:07 PM 36.5403 -76.5458 58° Northeast 317 365 10,700 -780 Descending Washington Center
Tue 07:55:02 PM 36.5764 -76.4636 61° Northeast 294 338 9,600 -1,434 Descending Washington Center
Tue 07:56:00 PM 36.6228 -76.3786 56° Northeast 295 339 8,000 -1,552 Descending Washington Center
Tue 07:56:58 PM 36.6858 -76.3300 32° Northeast 288 331 6,600 -1,513 Descending Washington Center
Tue 07:57:59 PM 36.7611 -76.2739 31° Northeast 279 321 5,000 -1,579 Descending Washington Center
Tue 07:58:14 PM 36.7758 -76.2636 29° Northeast 288 331 4,600 -1,300 Descending Washington Center
Tue 07:58:59 PM 36.8261 -76.2172 36° Northeast 279 321 3,700 -1,000 Descending Washington Center
Tue 07:59:14 PM 36.8408 -76.2069 29° Northeast 281 323 3,600 -868 Descending Washington Center
Tue 08:00:15 PM 36.8975 -76.1478 40° Northeast 228 262 2,600 -984 Descending Washington Center

Login

Don't have an account? Register now (free) for customized features, flight alerts, and more!